createdAt,value
2018-12-19T00:02:21.297Z,15.93
2018-12-19T00:04:49.696Z,15.83
2018-12-19T00:07:18.119Z,22.58
2018-12-19T00:09:46.524Z,14.45
2018-12-19T00:12:14.947Z,15.03
2018-12-19T00:14:43.347Z,13.72
2018-12-19T00:17:11.836Z,17.80
2018-12-19T00:19:40.234Z,14.60
2018-12-19T00:22:08.658Z,20.97
2018-12-19T00:24:37.066Z,14.55
2018-12-19T00:27:05.515Z,19.65
2018-12-19T00:29:33.921Z,18.85
2018-12-19T00:32:02.346Z,13.88
2018-12-19T00:34:30.755Z,22.50
2018-12-19T00:36:59.174Z,23.80
2018-12-19T00:39:27.581Z,22.60
2018-12-19T00:41:56.122Z,23.32
2018-12-19T00:44:24.572Z,19.45
2018-12-19T00:46:52.996Z,26.02
2018-12-19T00:49:21.400Z,23.30
2018-12-19T00:51:49.830Z,23.10
2018-12-19T00:54:18.291Z,21.05
2018-12-19T00:56:46.811Z,22.22
2018-12-19T00:59:15.210Z,16.95
2018-12-19T01:01:43.631Z,26.90
2018-12-19T01:04:12.038Z,23.57
2018-12-19T01:06:40.477Z,21.05
2018-12-19T01:09:08.919Z,18.02
2018-12-19T01:11:37.472Z,24.20
2018-12-19T01:14:05.998Z,21.27
2018-12-19T01:16:34.434Z,19.23
2018-12-19T01:19:02.858Z,22.00
2018-12-19T01:21:31.259Z,20.10
2018-12-19T01:23:59.726Z,14.38
2018-12-19T01:26:28.128Z,16.35
2018-12-19T01:28:56.582Z,20.57
2018-12-19T01:31:25.671Z,19.12
2018-12-19T01:33:54.099Z,15.13
2018-12-19T01:36:22.526Z,16.87
2018-12-19T01:38:50.941Z,20.85
2018-12-19T01:41:19.338Z,18.73
2018-12-19T01:43:47.758Z,17.55
2018-12-19T01:46:16.165Z,16.75
2018-12-19T01:48:44.642Z,15.32
2018-12-19T01:51:13.038Z,19.40
2018-12-19T01:53:41.478Z,20.75
2018-12-19T01:56:09.980Z,20.57
2018-12-19T01:58:38.404Z,22.30
2018-12-19T02:01:06.813Z,25.25
2018-12-19T02:03:35.310Z,23.95
2018-12-19T02:06:03.825Z,18.42
2018-12-19T02:08:32.230Z,22.37
2018-12-19T02:11:00.654Z,19.73
2018-12-19T02:13:29.059Z,20.52
2018-12-19T02:15:57.482Z,28.80
2018-12-19T02:18:25.882Z,16.90
2018-12-19T02:20:54.310Z,18.52
2018-12-19T02:23:22.706Z,16.85
2018-12-19T02:25:51.155Z,26.10
2018-12-19T02:28:19.561Z,21.33
2018-12-19T02:30:47.986Z,20.65
2018-12-19T02:33:16.399Z,18.95
2018-12-19T02:35:44.819Z,19.90
2018-12-19T02:38:13.240Z,20.52
2018-12-19T02:40:41.666Z,23.65
2018-12-19T02:43:10.061Z,19.65
2018-12-19T02:45:38.486Z,26.20
2018-12-19T02:48:06.896Z,23.40
2018-12-19T02:50:35.313Z,17.65
2018-12-19T02:53:03.731Z,22.60
2018-12-19T02:55:32.153Z,33.23
2018-12-19T02:58:00.558Z,25.00
2018-12-19T03:00:29.003Z,25.43
2018-12-19T03:02:57.411Z,17.95
2018-12-19T03:05:25.830Z,19.52
2018-12-19T03:07:54.291Z,19.50
2018-12-19T03:10:22.786Z,21.10
2018-12-19T03:12:51.203Z,27.37
2018-12-19T03:15:19.648Z,29.20
2018-12-19T03:17:48.077Z,22.90
2018-12-19T03:20:16.497Z,28.70
2018-12-19T03:22:44.931Z,29.77
2018-12-19T03:25:13.445Z,21.60
2018-12-19T03:27:41.870Z,24.43
2018-12-19T03:30:10.525Z,29.70
2018-12-19T03:32:38.959Z,37.98
2018-12-19T03:35:07.369Z,40.17
2018-12-19T03:37:35.815Z,32.13
2018-12-19T03:40:04.549Z,24.43
2018-12-19T03:42:33.025Z,21.52
2018-12-19T03:45:01.461Z,24.65
2018-12-19T03:47:30.014Z,17.65
2018-12-19T03:49:58.562Z,22.85
2018-12-19T03:52:27.016Z,19.37
2018-12-19T03:54:55.417Z,21.87
2018-12-19T03:57:24.162Z,22.00
2018-12-19T03:59:52.570Z,28.57
2018-12-19T04:02:20.990Z,22.40
2018-12-19T04:04:49.405Z,22.75
2018-12-19T04:07:17.837Z,20.82
2018-12-19T04:09:46.243Z,22.17
2018-12-19T04:12:14.658Z,15.88
2018-12-19T04:14:43.062Z,32.63
2018-12-19T04:17:11.605Z,20.77
2018-12-19T04:19:40.136Z,22.37
2018-12-19T04:22:08.562Z,20.68
2018-12-19T04:24:36.961Z,27.00
2018-12-19T04:27:05.402Z,19.48
2018-12-19T04:32:43.783Z,20.05
2018-12-19T04:35:12.233Z,19.90
2018-12-19T04:37:40.686Z,21.48
2018-12-19T04:40:09.123Z,24.80
2018-12-19T04:42:37.554Z,24.82
2018-12-19T04:45:06.194Z,23.52
2018-12-19T04:47:34.625Z,19.20
2018-12-19T04:50:03.258Z,20.97
2018-12-19T04:52:31.709Z,22.70
2018-12-19T04:55:00.154Z,20.62
2018-12-19T04:57:28.585Z,22.80
2018-12-19T04:59:57.006Z,15.88
2018-12-19T05:02:25.410Z,17.70
2018-12-19T05:04:53.841Z,24.57
2018-12-19T05:07:22.666Z,18.80
2018-12-19T05:09:51.083Z,15.93
2018-12-19T05:12:19.509Z,19.60
2018-12-19T05:14:47.939Z,12.60
2018-12-19T05:17:16.349Z,20.88
2018-12-19T05:19:45.378Z,22.43
2018-12-19T05:22:13.793Z,29.85
2018-12-19T05:24:42.217Z,25.05
2018-12-19T05:27:10.630Z,25.27
2018-12-19T05:29:39.073Z,27.80
2018-12-19T05:32:07.486Z,28.47
2018-12-19T05:34:35.919Z,35.30
2018-12-19T05:37:04.398Z,37.30
2018-12-19T05:39:32.826Z,33.85
2018-12-19T05:42:01.228Z,29.00
2018-12-19T05:44:29.650Z,30.85
2018-12-19T05:46:58.046Z,20.97
2018-12-19T05:49:26.482Z,21.73
2018-12-19T05:51:54.973Z,19.77
2018-12-19T05:54:23.426Z,17.92
2018-12-19T05:56:51.833Z,24.50
2018-12-19T05:59:20.258Z,17.60
2018-12-19T06:01:48.658Z,16.10
2018-12-19T06:04:17.070Z,12.53
2018-12-19T06:06:45.493Z,16.45
2018-12-19T06:09:13.896Z,15.38
2018-12-19T06:11:42.328Z,16.60
2018-12-19T06:14:10.747Z,28.52
2018-12-19T06:16:39.178Z,29.72
2018-12-19T06:19:07.591Z,27.48
2018-12-19T06:21:36.016Z,20.77
2018-12-19T06:24:04.426Z,19.80
2018-12-19T06:26:32.858Z,24.43
2018-12-19T06:29:01.471Z,19.85
2018-12-19T06:31:29.911Z,31.65
2018-12-19T06:33:58.688Z,38.70
2018-12-19T06:36:27.378Z,32.60
2018-12-19T06:38:55.811Z,29.00
2018-12-19T06:41:24.254Z,36.65
2018-12-19T06:43:52.674Z,21.82
2018-12-19T06:46:21.117Z,42.33
2018-12-19T06:48:49.540Z,29.10
2018-12-19T06:51:18.961Z,33.28
2018-12-19T06:53:47.561Z,38.25
2018-12-19T06:56:15.991Z,29.67
2018-12-19T06:58:44.430Z,26.60
2018-12-19T07:01:12.870Z,41.48
2018-12-19T07:03:41.290Z,27.07
2018-12-19T07:06:09.775Z,33.73
2018-12-19T07:08:38.200Z,27.98
2018-12-19T07:11:06.627Z,28.65
2018-12-19T07:13:35.057Z,35.35
2018-12-19T07:16:03.486Z,24.67
2018-12-19T07:18:31.930Z,31.57
2018-12-19T07:21:00.388Z,31.85
2018-12-19T07:23:28.948Z,34.65
2018-12-19T07:25:57.357Z,35.98
2018-12-19T07:28:25.781Z,26.43
2018-12-19T07:30:54.184Z,37.88
2018-12-19T07:33:22.614Z,38.30
2018-12-19T07:35:51.020Z,35.10
2018-12-19T07:38:19.447Z,41.65
2018-12-19T07:40:47.855Z,33.88
2018-12-19T07:43:16.287Z,36.73
2018-12-19T07:45:44.694Z,33.65
2018-12-19T07:48:13.354Z,40.58
2018-12-19T07:50:41.770Z,30.77
2018-12-19T07:53:10.935Z,35.55
2018-12-19T07:55:40.498Z,31.07
2018-12-19T07:58:09.131Z,38.05
2018-12-19T08:00:38.046Z,33.88
2018-12-19T08:03:06.498Z,41.40
2018-12-19T08:05:34.906Z,43.75
2018-12-19T08:08:03.534Z,34.18
2018-12-19T08:10:31.942Z,31.62
2018-12-19T08:13:00.382Z,23.32
2018-12-19T08:15:28.795Z,32.73
2018-12-19T08:17:57.230Z,26.47
2018-12-19T08:20:26.160Z,34.00
2018-12-19T08:22:56.340Z,40.85
2018-12-19T08:25:24.837Z,34.15
2018-12-19T08:27:53.415Z,29.52
2018-12-19T08:30:21.839Z,32.03
2018-12-19T08:32:50.302Z,34.58
2018-12-19T08:35:18.710Z,21.73
2018-12-19T08:37:47.141Z,28.50
2018-12-19T08:40:15.575Z,26.40
2018-12-19T08:42:44.063Z,32.90
2018-12-19T08:45:12.574Z,26.68
2018-12-19T08:47:40.987Z,25.00
2018-12-19T08:50:10.007Z,23.57
2018-12-19T08:52:38.445Z,20.00
2018-12-19T08:55:07.659Z,33.35
2018-12-19T08:57:36.074Z,45.50
2018-12-19T09:00:05.674Z,51.05
2018-12-19T09:02:34.083Z,40.40
2018-12-19T09:05:02.520Z,26.73
2018-12-19T09:07:30.933Z,34.10
2018-12-19T09:09:59.354Z,33.60
2018-12-19T09:12:27.813Z,26.40
2018-12-19T09:14:57.299Z,26.02
2018-12-19T09:17:26.598Z,41.23
2018-12-19T09:19:55.334Z,47.43
2018-12-19T09:22:24.273Z,47.75
2018-12-19T09:24:52.914Z,40.73
2018-12-19T09:27:21.394Z,35.57
2018-12-19T09:29:49.821Z,36.43
2018-12-19T09:32:18.235Z,28.52
2018-12-19T09:34:46.667Z,29.75
2018-12-19T09:37:15.083Z,44.98
2018-12-19T09:39:43.509Z,30.40
2018-12-19T09:42:11.911Z,31.87
2018-12-19T09:44:40.327Z,28.87
2018-12-19T09:47:08.735Z,28.07
2018-12-19T09:49:37.176Z,30.60
2018-12-19T09:52:05.582Z,29.80
2018-12-19T09:54:34.067Z,23.55
2018-12-19T09:57:02.490Z,24.77
2018-12-19T09:59:30.935Z,21.33
2018-12-19T10:01:59.574Z,39.07
2018-12-19T10:04:28.051Z,38.73
2018-12-19T10:06:56.487Z,41.97
2018-12-19T10:09:24.914Z,45.27
2018-12-19T10:11:53.364Z,46.70
2018-12-19T10:14:21.787Z,37.63
2018-12-19T10:16:50.210Z,42.97
2018-12-19T10:19:18.614Z,40.10
2018-12-19T10:21:47.436Z,43.33
2018-12-19T10:24:16.010Z,32.70
2018-12-19T10:26:45.285Z,45.67
2018-12-19T10:29:13.703Z,39.40
2018-12-19T10:31:42.132Z,41.07
2018-12-19T10:34:10.563Z,34.50
2018-12-19T10:36:38.994Z,39.90
2018-12-19T10:39:13.612Z,31.97
2018-12-19T10:41:42.078Z,36.07
2018-12-19T10:44:10.821Z,42.70
2018-12-19T10:46:39.456Z,57.43
2018-12-19T10:49:07.890Z,41.70
2018-12-19T10:51:36.334Z,49.40
2018-12-19T10:54:04.815Z,41.00
2018-12-19T10:56:33.235Z,40.53
2018-12-19T10:59:01.673Z,55.63
2018-12-19T11:01:30.119Z,47.83
2018-12-19T11:03:58.551Z,43.50
2018-12-19T11:06:27.023Z,48.45
2018-12-19T11:08:55.488Z,48.87
2018-12-19T11:11:23.928Z,46.07
2018-12-19T11:13:52.358Z,43.55
2018-12-19T11:16:20.771Z,44.10
2018-12-19T11:18:49.232Z,50.53
2018-12-19T11:21:17.879Z,48.00
2018-12-19T11:23:46.391Z,49.88
2018-12-19T11:26:14.802Z,58.87
2018-12-19T11:28:43.286Z,49.17
2018-12-19T11:31:11.717Z,41.95
2018-12-19T11:33:40.181Z,57.70
2018-12-19T11:36:10.126Z,40.63
2018-12-19T11:38:38.875Z,35.67
2018-12-19T11:41:07.297Z,37.27
2018-12-19T11:43:35.876Z,43.28
2018-12-19T11:46:04.426Z,60.38
2018-12-19T11:48:32.867Z,48.90
2018-12-19T11:51:01.281Z,43.13
2018-12-19T11:53:29.746Z,48.60
2018-12-19T11:55:58.190Z,48.27
2018-12-19T11:58:26.682Z,48.70
2018-12-19T12:00:55.218Z,45.97
2018-12-19T12:03:23.659Z,37.50
2018-12-19T12:05:52.079Z,36.17
2018-12-19T12:08:20.518Z,38.40
2018-12-19T12:10:48.946Z,40.10
2018-12-19T12:13:17.362Z,40.23
2018-12-19T12:15:45.921Z,39.27
2018-12-19T12:18:14.340Z,47.13
2018-12-19T12:20:42.778Z,51.30
2018-12-19T12:23:11.215Z,58.40
2018-12-19T12:25:39.654Z,54.07
2018-12-19T12:28:08.081Z,45.43
2018-12-19T12:30:36.522Z,48.67
2018-12-19T12:33:04.936Z,50.47
2018-12-19T12:35:33.366Z,41.83
2018-12-19T12:38:01.783Z,40.73
2018-12-19T12:40:30.215Z,38.17
2018-12-19T12:42:58.633Z,42.60
2018-12-19T12:45:27.091Z,31.97
2018-12-19T12:47:55.514Z,47.47
2018-12-19T12:50:23.968Z,44.70
2018-12-19T12:52:52.413Z,39.03
2018-12-19T12:55:20.842Z,35.23
2018-12-19T12:57:49.254Z,44.03
2018-12-19T13:00:17.689Z,65.50
2018-12-19T13:02:46.125Z,61.37
2018-12-19T13:05:14.682Z,50.70
2018-12-19T13:07:43.242Z,41.57
2018-12-19T13:10:11.678Z,38.70
2018-12-19T13:12:40.150Z,57.27
2018-12-19T13:15:09.118Z,48.27
2018-12-19T13:17:37.531Z,40.60
2018-12-19T13:20:06.543Z,45.43
2018-12-19T13:22:34.980Z,43.87
2018-12-19T13:25:03.526Z,48.97
2018-12-19T13:27:31.974Z,52.23
2018-12-19T13:30:00.390Z,58.37
2018-12-19T13:32:29.932Z,51.77
2018-12-19T13:34:58.356Z,51.87
2018-12-19T13:37:27.618Z,45.73
2018-12-19T13:39:56.653Z,60.80
2018-12-19T13:42:25.099Z,52.23
2018-12-19T13:44:53.514Z,44.90
2018-12-19T13:47:21.965Z,53.67
2018-12-19T13:49:50.382Z,50.13
2018-12-19T13:52:18.834Z,65.13
2018-12-19T13:54:47.319Z,51.10
2018-12-19T13:57:15.758Z,43.70
2018-12-19T13:59:44.162Z,55.30
2018-12-19T14:02:12.606Z,47.53
2018-12-19T14:04:41.249Z,56.17
2018-12-19T14:07:10.002Z,45.08
2018-12-19T14:09:38.533Z,49.30
2018-12-19T14:12:12.225Z,49.43
2018-12-19T14:14:37.405Z,55.53
2018-12-19T14:17:05.834Z,60.20
2018-12-19T14:19:34.238Z,50.37
2018-12-19T14:22:02.665Z,60.23
2018-12-19T14:24:31.090Z,61.40
2018-12-19T14:26:59.540Z,51.27
2018-12-19T14:29:28.007Z,53.30
2018-12-19T14:31:56.450Z,43.93
2018-12-19T14:34:24.891Z,64.87
2018-12-19T14:36:53.315Z,50.57
2018-12-19T14:39:21.752Z,45.23
2018-12-19T14:41:50.178Z,41.47
2018-12-19T14:44:18.626Z,45.63
2018-12-19T14:46:47.074Z,59.10
2018-12-19T14:49:15.542Z,54.10
2018-12-19T14:51:43.964Z,57.30
2018-12-19T14:54:12.406Z,50.37
2018-12-19T14:56:40.938Z,38.33
2018-12-19T14:59:09.400Z,50.33
2018-12-19T15:01:37.821Z,49.87
2018-12-19T15:04:06.301Z,54.23
2018-12-19T15:06:34.894Z,50.43
2018-12-19T15:09:03.991Z,51.40
2018-12-19T15:11:32.390Z,51.30
2018-12-19T15:14:01.002Z,58.03
2018-12-19T15:16:29.416Z,58.20
2018-12-19T15:18:57.846Z,50.90
2018-12-19T15:21:26.272Z,56.57
2018-12-19T15:23:54.811Z,61.43
2018-12-19T15:26:23.234Z,53.50
2018-12-19T15:28:51.733Z,51.15
2018-12-19T15:31:20.150Z,53.57
2018-12-19T15:33:48.582Z,42.93
2018-12-19T15:36:17.165Z,64.73
2018-12-19T15:38:45.592Z,47.00
2018-12-19T15:41:14.291Z,46.87
2018-12-19T15:43:42.751Z,58.67
2018-12-19T15:46:11.279Z,48.90
2018-12-19T15:48:39.714Z,50.52
2018-12-19T15:51:08.156Z,50.63
2018-12-19T15:53:36.587Z,47.73
2018-12-19T15:56:05.012Z,51.60
2018-12-19T15:58:33.415Z,44.30
2018-12-19T16:01:01.849Z,41.53
2018-12-19T16:03:30.267Z,35.10
2018-12-19T16:05:58.690Z,45.93
2018-12-19T16:08:27.671Z,52.37
2018-12-19T16:10:56.275Z,45.43
2018-12-19T16:13:24.675Z,44.60
2018-12-19T16:15:53.138Z,49.27
2018-12-19T16:18:21.538Z,57.90
2018-12-19T16:20:49.969Z,51.77
2018-12-19T16:23:18.399Z,55.27
2018-12-19T16:25:46.818Z,53.57
2018-12-19T16:28:15.370Z,50.50
2018-12-19T16:30:43.793Z,54.70
2018-12-19T16:33:12.254Z,70.53
2018-12-19T16:35:40.677Z,60.53
2018-12-19T16:38:09.118Z,65.70
2018-12-19T16:40:37.546Z,78.03
2018-12-19T16:43:05.967Z,62.47
2018-12-19T16:45:34.436Z,65.20
2018-12-19T16:48:02.856Z,68.07
2018-12-19T16:50:31.282Z,59.40
2018-12-19T16:52:59.745Z,61.97
2018-12-19T16:55:28.158Z,69.67
2018-12-19T16:57:56.785Z,75.50
2018-12-19T17:00:25.342Z,70.13
2018-12-19T17:02:53.784Z,70.27
2018-12-19T17:05:22.192Z,54.97
2018-12-19T17:07:50.637Z,68.10
2018-12-19T17:10:19.038Z,67.03
2018-12-19T17:12:52.770Z,61.97
2018-12-19T17:15:17.898Z,66.87
2018-12-19T17:17:46.348Z,62.33
2018-12-19T17:20:14.790Z,64.43
2018-12-19T17:22:43.239Z,57.17
2018-12-19T17:25:11.646Z,55.17
2018-12-19T17:27:40.071Z,73.13
2018-12-19T17:30:08.595Z,67.53
2018-12-19T17:32:37.038Z,80.30
2018-12-19T17:35:06.230Z,71.03
2018-12-19T17:37:34.651Z,51.40
2018-12-19T17:40:03.177Z,55.13
2018-12-19T17:42:31.598Z,62.83
2018-12-19T17:45:00.027Z,71.90
2018-12-19T17:47:28.431Z,60.70
2018-12-19T17:49:56.856Z,62.97
2018-12-19T17:52:25.293Z,66.60
2018-12-19T17:54:53.736Z,73.13
2018-12-19T17:57:22.152Z,61.10
2018-12-19T17:59:50.582Z,61.07
2018-12-19T18:02:18.986Z,59.40
2018-12-19T18:04:47.411Z,44.73
2018-12-19T18:07:15.838Z,61.17
2018-12-19T18:09:44.269Z,50.87
2018-12-19T18:12:12.785Z,45.30
2018-12-19T18:14:41.344Z,46.03
2018-12-19T18:17:09.753Z,51.33
2018-12-19T18:19:38.170Z,39.50
2018-12-19T18:22:06.570Z,40.43
2018-12-19T18:24:37.851Z,49.73
2018-12-19T18:27:06.314Z,45.80
2018-12-19T18:29:34.798Z,33.87
2018-12-19T18:32:03.206Z,48.10
2018-12-19T18:34:31.625Z,55.93
2018-12-19T18:37:00.066Z,58.83
2018-12-19T18:39:28.485Z,63.27
2018-12-19T18:41:56.898Z,54.73
2018-12-19T18:44:25.323Z,52.67
2018-12-19T18:46:53.719Z,74.17
2018-12-19T18:49:22.155Z,65.03
2018-12-19T18:51:50.554Z,73.20
2018-12-19T18:54:19.289Z,78.77
2018-12-19T18:56:47.695Z,64.97
2018-12-19T18:59:16.097Z,73.00
2018-12-19T19:01:44.647Z,63.37
2018-12-19T19:04:13.070Z,63.83
2018-12-19T19:06:41.619Z,64.80
2018-12-19T19:09:10.114Z,77.30
2018-12-19T19:11:38.534Z,63.87
2018-12-19T19:14:06.971Z,61.00
2018-12-19T19:16:35.400Z,62.00
2018-12-19T19:19:03.950Z,73.87
2018-12-19T19:21:32.373Z,70.53
2018-12-19T19:24:00.787Z,72.53
2018-12-19T19:26:29.206Z,75.37
2018-12-19T19:28:57.646Z,58.50
2018-12-19T19:31:26.064Z,77.27
2018-12-19T19:33:54.462Z,73.63
2018-12-19T19:36:22.898Z,79.37
2018-12-19T19:38:51.305Z,77.50
2018-12-19T19:41:19.738Z,87.80
2018-12-19T19:43:48.157Z,85.32
2018-12-19T19:46:16.574Z,71.13
2018-12-19T19:48:44.974Z,65.80
2018-12-19T19:51:16.897Z,55.57
2018-12-19T19:53:43.849Z,61.73
2018-12-19T19:56:12.286Z,73.10
2018-12-19T19:58:40.696Z,64.03
2018-12-19T20:01:09.118Z,53.97
2018-12-19T20:03:37.523Z,80.73
2018-12-19T20:06:05.956Z,68.33
2018-12-19T20:08:34.491Z,92.67
2018-12-19T20:11:02.965Z,74.87
2018-12-19T20:13:33.439Z,87.20
2018-12-19T20:16:01.799Z,57.23
2018-12-19T20:18:30.357Z,81.40
2018-12-19T20:20:58.878Z,61.77
2018-12-19T20:23:27.302Z,64.40
2018-12-19T20:25:55.710Z,78.27
2018-12-19T20:28:24.131Z,81.50
2018-12-19T20:30:52.553Z,66.67
2018-12-19T20:33:21.234Z,59.30
2018-12-19T20:35:49.642Z,71.30
2018-12-19T20:38:18.062Z,69.10
2018-12-19T20:40:46.466Z,70.20
2018-12-19T20:43:14.887Z,78.80
2018-12-19T20:45:43.313Z,68.60
2018-12-19T20:48:11.746Z,75.80
2018-12-19T20:50:40.182Z,61.97
2018-12-19T20:53:08.636Z,81.97
2018-12-19T20:55:37.050Z,49.47
2018-12-19T20:58:05.470Z,68.57
2018-12-19T21:00:34.002Z,76.77
2018-12-19T21:03:02.542Z,68.60
2018-12-19T21:05:30.952Z,76.73
2018-12-19T21:07:59.504Z,80.07
2018-12-19T21:10:28.049Z,62.60
2018-12-19T21:12:56.474Z,79.23
2018-12-19T21:15:24.887Z,69.37
2018-12-19T21:17:58.831Z,79.43
2018-12-19T21:20:27.360Z,75.77
2018-12-19T21:22:55.891Z,64.20
2018-12-19T21:25:24.319Z,75.00
2018-12-19T21:27:52.748Z,48.47
2018-12-19T21:30:21.245Z,42.30
2018-12-19T21:32:49.666Z,39.80
2018-12-19T21:35:18.202Z,52.37
2018-12-19T21:37:46.615Z,40.07
2018-12-19T21:40:15.166Z,55.37
2018-12-19T21:42:43.931Z,40.67
2018-12-19T21:45:12.466Z,52.13
2018-12-19T21:47:41.006Z,68.20
2018-12-19T21:50:09.611Z,49.00
2018-12-19T21:52:38.254Z,49.30
2018-12-19T21:55:06.752Z,70.03
2018-12-19T21:57:35.289Z,35.40
2018-12-19T22:00:04.052Z,58.43
2018-12-19T22:02:32.494Z,43.20
2018-12-19T22:05:01.025Z,37.60
2018-12-19T22:07:29.476Z,47.03
2018-12-19T22:09:58.090Z,60.03
2018-12-19T22:12:26.491Z,47.93
2018-12-19T22:14:55.017Z,51.57
2018-12-19T22:17:28.827Z,45.83
2018-12-19T22:19:57.243Z,39.50
2018-12-19T22:22:25.676Z,57.03
2018-12-19T22:24:54.287Z,47.77
2018-12-19T22:27:22.775Z,46.00
2018-12-19T22:29:51.595Z,46.03
2018-12-19T22:32:20.226Z,52.97
2018-12-19T22:34:48.883Z,73.13
2018-12-19T22:37:17.402Z,66.33
2018-12-19T22:39:45.823Z,62.67
2018-12-19T22:42:14.342Z,49.23
2018-12-19T22:44:42.956Z,46.67
2018-12-19T22:47:11.363Z,43.90
2018-12-19T22:49:39.785Z,57.00
2018-12-19T22:52:08.527Z,47.63
2018-12-19T22:54:37.191Z,49.03
2018-12-19T22:57:05.866Z,51.33
2018-12-19T22:59:34.489Z,41.10
2018-12-19T23:02:08.286Z,51.37
2018-12-19T23:04:37.043Z,57.90
2018-12-19T23:07:05.567Z,60.77
2018-12-19T23:09:34.265Z,54.10
2018-12-19T23:12:03.060Z,47.77
2018-12-19T23:14:31.769Z,42.40
2018-12-19T23:17:04.523Z,53.20
2018-12-19T23:19:33.005Z,49.10
2018-12-19T23:22:01.636Z,58.60
2018-12-19T23:24:30.296Z,57.63
2018-12-19T23:26:59.013Z,51.37
2018-12-19T23:29:27.789Z,53.80
2018-12-19T23:31:56.500Z,51.50
2018-12-19T23:34:24.948Z,34.93
2018-12-19T23:36:53.470Z,50.70
2018-12-19T23:39:21.872Z,34.70
2018-12-19T23:41:50.378Z,33.90
2018-12-19T23:44:24.239Z,49.40
2018-12-19T23:46:53.060Z,48.60
2018-12-19T23:49:21.849Z,49.67
2018-12-19T23:51:50.703Z,44.57
2018-12-19T23:54:19.557Z,58.30
2018-12-19T23:56:48.086Z,48.23
2018-12-19T23:59:16.803Z,51.93
